Poe, Indiana
Current Conditions -  °F | °C
As of 9:54 PM on Saturday 22 Nov 2014 (Local Time) from KFWA Reporting Station
Overcast Overcast  
Wind Chill: 50°   Ceiling: 3600
Heat Index: 50°   Visibility: 10mi
Dew Point: 41°   Wind: 12mph
Humidity: 71%   Direction: 200°SSW
Pressure: 29.98"   Gusts: NA
Location:  40.9649°N, 85.1332°W
Report Text: KFWA 230254Z 20010KT 10SM OVC036 10/05 A2998 RMK AO2 SLP155 T01000050 58002
Loading
Personal Weather Stations






























Interactive Weather Map New forecast layout! Learn more

10-Day Weather Forecast

Advertisements
Track Severe Weather on mobile